Tiempo atmosférico en la estación meteorológica de Carmona, Sevilla (50 m.)



Fecha
DESCASC
Temp. máxima en grados centígrados (hora)
DESCASC
Temp. mínima en grados centígrados (hora)
DESCASC
Temp. media en grados centígrados
DESCASC
Racha de viento máxima en m/sg (hora)
DESCASC
Velocidad máxima media en intervalos de 10 minutos(hora)
DESCASC
Precipitaciones diarias en mm
DESCASC
Precipitaciones de 00:00 a 06:00 en mm
DESCASC
Precipitaciones de 06:00 a 12:00 en mm
DESCASC
Precipitaciones de 12:00 a 18:00 en mm
DESCASC
Precipitaciones de 18:00 a 24:00 en mm
DESCASC
18-02-2018 20.1 (16:50) 4.9 (08:20) 12.5 8.33 (11:50) 5.56 (12:40) 0 0 0 0 0
17-02-2018 17.3 (17:20) 7.1 (03:20) 12.2 5.56 (15:40) 3.33 (16:50) 0.2 0 0.2 0 0
16-02-2018 22.2 (15:20) 6.1 (06:10) 14.2 6.67 (22:10) 5 (23:10) 0 0 0 0 0
15-02-2018 21.1 (17:20) 4.6 (00:00) 12.9 7.5 (14:10) 5.28 (13:30) 0 0 0 0 0
14-02-2018 16.3 (18:00) 1.8 (00:00) 9 5.28 (21:40) 3.61 (21:40) 0 0 0 0 0
13-02-2018 15.7 (17:00) 0.4 (00:00) 8 6.39 (17:00) 4.17 (18:00) 0 0 0 0 0
12-02-2018 19 (15:40) 6.2 (00:00) 12.6 10.56 (15:10) 6.67 (13:00) 0 0 0 0 0
11-02-2018 17.6 (16:30) 1.1 (00:00) 9.4 8.33 (18:10) 5 (16:10) 0 0 0 0 0
10-02-2018 16.9 (16:40) 2.2 (00:00) 9.5 8.06 (16:10) 5.56 (16:10) 0 0 0 0 0
09-02-2018 13.2 (15:30) -1.4 (-00:0) 5.9 6.39 (17:50) 4.17 (17:50) 0 0 0 0 0
08-02-2018 15.1 (17:10) 0.1 (00:00) 7.6 7.5 (13:10) 4.44 (12:00) 0 0 0 0 0
07-02-2018 13 (16:00) 0.2 (00:00) 6.6 13.89 (11:50) 9.17 (12:00) 0 0 0 0 0
06-02-2018 14.1 (15:30) 1.9 (00:00) 8 8.33 (12:00) 4.72 (12:00) 0 0 0 0 0
05-02-2018 10.8 (17:40) 2.8 (00:00) 6.8 4.72 (14:10) 3.06 (14:20) 0 0 0 0 0
04-02-2018 12.3 (17:40) 4.9 (00:00) 8.6 6.67 (13:00) 3.61 (17:20) 1.4 0.4 0 1 0
03-02-2018 14.7 (17:20) -0.5 (-00:0) 7.1 6.39 (15:20) 4.44 (17:40) 0 0 0 0 0
02-02-2018 15.5 (16:00) 5.2 (00:00) 10.3 8.89 (16:20) 6.11 (16:40) 0 0 0 0 0
01-02-2018 17.3 (17:20) 4.5 (00:00) 10.9 9.44 (18:30) 6.39 (17:00) 0 0 0 0 0
31-01-2018 18 (15:10) 8.3 (00:00) 13.2 10.83 (12:20) 6.94 (12:20) 0 0 0 0 0
30-01-2018 17.6 (14:10) 9 (00:00) 13.3 11.94 (10:40) 7.78 (10:40) 0 0 0 0 0
29-01-2018 19 (16:50) 6.4 (00:00) 12.7 14.17 (12:40) 9.17 (13:00) 0 0 0 0 0
28-01-2018 16.2 (16:20) 2.1 (00:00) 9.2 17.78 (16:00) 11.11 (16:00) 0 0 0 0 0
27-01-2018 15.6 (16:30) 3.6 (00:00) 9.6 11.39 (14:50) 7.22 (14:30) 0 0 0 0 0
26-01-2018 15.1 (16:40) 4.3 (00:00) 9.7 10.28 (16:40) 5.83 (15:40) 0 0 0 0 0
25-01-2018 14.9 (13:40) 7.2 (00:00) 11 10.83 (14:50) 8.06 (14:50) 1.8 0 0 0.6 1.2
24-01-2018 19.7 (17:00) 4.5 (00:00) 12.1 4.72 (12:30) 3.33 (20:20) 0 0 0 0 0
23-01-2018 19.2 (16:30) 4.9 (00:00) 12.1 5.28 (13:20) 3.33 (13:20) 0 0 0 0 0
22-01-2018 19.5 (17:40) 4.7 (00:00) 12.1 4.72 (05:40) 3.33 (12:20) 0 0 0 0 0

Gráficas

Temp. máximas Temp. mínimas Temp. medias Precipitaciones Rachas de viento máximas Velocidades máximas media en intervalos de 10 minutos

Datos horarios

Fecha y hora oficial Temperatura (ºC) Velocidad del viento (km/h) Dirección del viento Racha (km/h) Dirección de racha Precipitación (mm) Presión (hPa) Tendencia (hPa) Humedad (%)
2018-02-20 23:00:00 11.9 6 Nordeste 10 Norte 0 -- -- 58
2018-02-20 22:00:00 11.8 5 Norte 8 Norte 0 -- -- 60
2018-02-20 21:00:00 13.2 7 Norte 11 Norte 0 -- -- 60
2018-02-20 20:00:00 16.1 0 Calma 4 Sudoeste 0 -- -- 48
2018-02-20 19:00:00 20.8 0 Calma 8 Sur 0 -- -- 38
2018-02-20 18:00:00 21.7 5 Sudoeste 10 Sur 0 -- -- 33
2018-02-20 17:00:00 22 3 Nordeste 13 Sudeste 0 -- -- 33
2018-02-20 16:00:00 21.6 4 Este 26 Este 0 -- -- 35
2018-02-20 15:00:00 20.4 11 Sudeste 22 Sudeste 0 -- -- 37
2018-02-20 14:00:00 19.7 12 Este 23 Sudeste 0 -- -- 38
2018-02-20 13:00:00 18.9 17 Sudeste 30 Sudeste 0 -- -- 41
2018-02-20 12:00:00 16.3 9 Este 15 Este 0 -- -- 50
2018-02-20 11:00:00 13.4 13 Este 18 Este 0 -- -- 55
2018-02-20 10:00:00 10.9 9 Este 15 Este 0 -- -- 63
2018-02-20 09:00:00 7.6 10 Este 15 Este 0 -- -- 75
2018-02-20 08:00:00 5.2 9 Este 13 Este 0 -- -- 81
2018-02-20 07:00:00 5.3 8 Este 14 Este 0 -- -- 81
2018-02-20 06:00:00 5.3 10 Este 12 Este 0 -- -- 80
2018-02-20 05:00:00 6.1 7 Este 12 Este 0 -- -- 78
2018-02-20 04:00:00 6.2 9 Este 10 Este 0 -- -- 79
2018-02-20 03:00:00 6.4 6 Este 8 Este 0 -- -- 72
2018-02-20 02:00:00 7.4 4 Nordeste 8 Norte 0 -- -- 69
2018-02-20 01:00:00 8 3 Norte 5 Norte 0 -- -- 70
2018-02-20 00:00:00 9.8 5 Norte 13 Norte 0 -- -- 62
2018-02-19 23:00:00 8.9 6 Este 9 Nordeste 0 -- -- 66
2018-02-19 22:00:00 10.4 6 Norte 9 Norte 0 -- -- 62
2018-02-19 21:00:00 11.5 3 Nordeste 5 Noroeste 0 -- -- 55
2018-02-19 20:00:00 14.4 2 Norte 5 Este 0 -- -- 46
2018-02-19 19:00:00 17.8 5 Este 10 Este 0 -- -- 38
2018-02-19 18:00:00 19.3 3 Este 13 Sudeste 0 -- -- 33
2018-02-19 17:00:00 19 8 Sudeste 19 Este 0 -- -- 32
2018-02-19 16:00:00 19.2 13 Sudeste 24 Este 0 -- -- 32
2018-02-19 15:00:00 18.9 11 Este 25 Sudeste 0 -- -- 32
2018-02-19 14:00:00 17.7 16 Sudeste 25 Este 0 -- -- 31
2018-02-19 13:00:00 16.3 15 Este 23 Sudeste 0 -- -- 37
2018-02-19 12:00:00 13.8 9 Este 17 Este 0 -- -- 48
2018-02-19 11:00:00 10.6 10 Este 19 Este 0 -- -- 55
2018-02-19 10:00:00 7 9 Este 12 Este 0 -- -- 72
2018-02-19 09:00:00 5.5 8 Este 11 Este 0 -- -- 83
2018-02-19 08:00:00 5 10 Este 11 Este 0 -- -- 82
2018-02-19 07:00:00 5 8 Este 9 Este 0 -- -- 80
2018-02-19 06:00:00 6.1 4 Este 10 Nordeste 0 -- -- 77
2018-02-19 05:00:00 7.1 8 Nordeste 9 Este 0 -- -- 79
2018-02-19 04:00:00 7 6 Nordeste 9 Este 0 -- -- 80
2018-02-19 03:00:00 6.9 4 Sudeste 9 Nordeste 0 -- -- 81
2018-02-19 02:00:00 8.1 7 Nordeste 8 Nordeste 0 -- -- 80
2018-02-19 01:00:00 9.2 3 Nordeste 6 Noroeste 0 -- -- 68
2018-02-19 00:00:00 9.8 6 Sur 9 Sur 0 -- -- 74
2018-02-18 23:00:00 12 4 Nordeste 10 Norte 0 -- -- 67
2018-02-18 22:00:00 12.5 9 Norte 12 Norte 0 -- -- 68
2018-02-18 21:00:00 12.7 5 Este 6 Sudeste 0 -- -- 65
2018-02-18 20:00:00 13.8 3 Sudeste 4 Sudeste 0 -- -- 61
2018-02-18 19:00:00 17.3 4 Este 9 Este 0 -- -- 48
2018-02-18 18:00:00 19.4 8 Este 17 Este 0 -- -- 43
2018-02-18 17:00:00 20.1 7 Este 21 Este 0 -- -- 43
2018-02-18 16:00:00 19.9 12 Este 30 Sudeste 0 -- -- 46
2018-02-18 15:00:00 19.1 12 Este 23 Este 0 -- -- 49
2018-02-18 14:00:00 18.1 13 Este 29 Este 0 -- -- 54
2018-02-18 13:00:00 17 19 Este 30 Este 0 -- -- 56
2018-02-18 12:00:00 14 20 Este 30 Este 0 -- -- 67
2018-02-18 11:00:00 10.6 14 Este 23 Este 0 -- -- 84
2018-02-18 10:00:00 6.9 7 Este 14 Este 0 -- -- 93
2018-02-18 09:00:00 5.3 7 Este 13 Este 0 -- -- 93
2018-02-18 08:00:00 5.2 9 Este 18 Este 0 -- -- 92
2018-02-18 07:00:00 6 10 Este 16 Este 0 -- -- 92
2018-02-18 06:00:00 6.2 8 Este 14 Este 0 -- -- 91
2018-02-18 05:00:00 6.1 7 Este 12 Este 0 -- -- 91
2018-02-18 04:00:00 6.1 8 Este 12 Este 0 -- -- 90
2018-02-18 03:00:00 6.6 6 Este 9 Este 0 -- -- 89
2018-02-18 02:00:00 6.8 3 Sudeste 4 Sudeste 0 -- -- 87
2018-02-18 01:00:00 8 4 Sudoeste 7 Sudoeste 0 -- -- 86
2018-02-18 00:00:00 8.9 3 Sudoeste 8 Noroeste 0 -- -- 83
2018-02-17 23:00:00 10.4 5 Oeste 12 Sudoeste 0 -- -- 79
2018-02-17 22:00:00 11.6 7 Sudoeste 15 Sudoeste 0 -- -- 77
2018-02-17 21:00:00 12.7 9 Sudoeste 15 Sudoeste 0 -- -- 74
2018-02-17 20:00:00 13.1 6 Sur 9 Sudoeste 0 -- -- 71
2018-02-17 19:00:00 15.3 6 Sudoeste 13 Sudoeste 0 -- -- 64
2018-02-17 18:00:00 16.5 8 Sudoeste 17 Sudoeste 0 -- -- 59
2018-02-17 17:00:00 17.1 11 Sudoeste 20 Sudoeste 0 -- -- 58
2018-02-17 16:00:00 16.8 10 Oeste 20 Oeste 0 -- -- 59
2018-02-17 15:00:00 16.5 5 Sudoeste 13 Sur 0 -- -- 66
2018-02-17 14:00:00 13.8 3 Norte 8 Nordeste 0 -- -- 85
2018-02-17 13:00:00 11.4 4 Nordeste 7 Nordeste 0 -- -- 94
2018-02-17 12:00:00 9.8 4 Nordeste 10 Este 0 -- -- 94
2018-02-17 11:00:00 9.5 4 Nordeste 8 Nordeste 0 -- -- 94
2018-02-17 10:00:00 9 4 Nordeste 10 Este 0 -- -- 94
2018-02-17 09:00:00 8.6 3 Nordeste 6 Nordeste 0.2 -- -- 93
2018-02-17 08:00:00 8.4 4 Este 8 Este 0 -- -- 93
2018-02-17 07:00:00 8.3 4 Nordeste 9 Nordeste 0 -- -- 92
2018-02-17 06:00:00 8.1 5 Nordeste 8 Nordeste 0 -- -- 92
2018-02-17 05:00:00 8.7 3 Nordeste 5 Este 0 -- -- 92
2018-02-17 04:00:00 8.9 0 Calma 8 Sudoeste 0 -- -- 90
2018-02-17 03:00:00 7.5 5 Nordeste 8 Nordeste 0 -- -- 85
2018-02-17 02:00:00 9 0 Calma 8 Sudoeste 0 -- -- 79
2018-02-17 01:00:00 10.4 0 Calma 7 Sudoeste 0 -- -- 78
2018-02-17 00:00:00 11.5 5 Nordeste 22 Sudoeste 0 -- -- 76
2018-02-16 23:00:00 13 16 Oeste 24 Sudoeste 0 -- -- 71
2018-02-16 22:00:00 14.2 12 Sudoeste 19 Oeste 0 -- -- 67
2018-02-16 21:00:00 15.6 11 Sudoeste 23 Sudoeste 0 -- -- 63
2018-02-16 20:00:00 17.2 13 Sudoeste 19 Sudoeste 0 -- -- 54
2018-02-16 19:00:00 20 8 Sudoeste 17 Sudoeste 0 -- -- 46
2018-02-16 18:00:00 21.3 12 Sudoeste 18 Sudoeste 0 -- -- 39
2018-02-16 17:00:00 22.1 7 Sudoeste 16 Sudoeste 0 -- -- 37
2018-02-16 16:00:00 22.1 4 Sudoeste 13 Sudoeste 0 -- -- 39
2018-02-16 15:00:00 21.8 4 Nordeste 11 Sudeste 0 -- -- 42
2018-02-16 14:00:00 20.2 4 Nordeste 15 Este 0 -- -- 47
2018-02-16 13:00:00 18.4 10 Este 19 Este 0 -- -- 53
2018-02-16 12:00:00 16.6 13 Este 22 Este 0 -- -- 59
2018-02-16 11:00:00 13.8 8 Este 17 Este 0 -- -- 69
2018-02-16 10:00:00 11.1 5 Nordeste 12 Este 0 -- -- 79
2018-02-16 09:00:00 8.1 6 Este 12 Este 0 -- -- 89
2018-02-16 08:00:00 6.8 10 Este 13 Este 0 -- -- 89
2018-02-16 07:00:00 6.3 10 Este 11 Este 0 -- -- 89
2018-02-16 06:00:00 6.2 8 Este 10 Este 0 -- -- 89
2018-02-16 05:00:00 6.5 6 Nordeste 10 Este 0 -- -- 88
2018-02-16 04:00:00 6.8 6 Este 9 Este 0 -- -- 85
2018-02-16 03:00:00 7.9 6 Nordeste 9 Nordeste 0 -- -- 85
2018-02-16 02:00:00 7.8 5 Este 8 Nordeste 0 -- -- 82
2018-02-16 01:00:00 9.1 3 Nordeste 8 Nordeste 0 -- -- 81
2018-02-16 00:00:00 8.9 5 Este 6 Este 0 -- -- 79
2018-02-15 23:00:00 10 4 Nordeste 5 Nordeste 0 -- -- 77
2018-02-15 22:00:00 11.5 0 Calma 6 Sudeste 0 -- -- 70
2018-02-15 21:00:00 13 6 Este 8 Este 0 -- -- 66
2018-02-15 20:00:00 15 3 Este 5 Sudeste 0 -- -- 59
2018-02-15 19:00:00 18.8 4 Sur 10 Sur 0 -- -- 51
2018-02-15 18:00:00 20.3 6 Sur 11 Sudeste 0 -- -- 46
2018-02-15 17:00:00 20.8 3 Norte 15 Este 0 -- -- 45
2018-02-15 16:00:00 20.4 7 Nordeste 17 Sudeste 0 -- -- 45
2018-02-15 15:00:00 19.4 10 Este 27 Sudeste 0 -- -- 47
2018-02-15 14:00:00 18.3 17 Este 27 Este 0 -- -- 48
2018-02-15 13:00:00 17 17 Este 26 Este 0 -- -- 53
2018-02-15 12:00:00 14.4 17 Este 23 Este 0 -- -- 61
2018-02-15 11:00:00 11.5 12 Este 20 Nordeste 0 -- -- 68
2018-02-15 10:00:00 8.3 10 Este 20 Este 0 -- -- 78
2018-02-15 09:00:00 5.5 8 Este 13 Este 0 -- -- 88
2018-02-15 08:00:00 4.8 11 Este 18 Este 0 -- -- 88
2018-02-15 07:00:00 4.9 6 Este 14 Este 0 -- -- 87
2018-02-15 06:00:00 5.4 12 Este 18 Este 0 -- -- 86
2018-02-15 05:00:00 5.3 9 Este 12 Este 0 -- -- 87
2018-02-15 04:00:00 5.4 6 Este 12 Este 0 -- -- 87
2018-02-15 03:00:00 5.2 7 Este 9 Este 0 -- -- 84
2018-02-15 02:00:00 5.9 2 Este 6 Nordeste 0 -- -- 81
2018-02-15 01:00:00 6.7 0 Calma 4 Noroeste 0 -- -- 79
2018-02-15 00:00:00 7.7 4 Sudoeste 5 Noroeste 0 -- -- 78
2018-02-14 23:00:00 9.3 4 Noroeste 15 Sudoeste 0 -- -- 74
2018-02-14 22:00:00 11.3 12 Oeste 19 Oeste 0 -- -- 68
2018-02-14 21:00:00 11.4 9 Sudoeste 14 Sudoeste 0 -- -- 65
2018-02-14 20:00:00 12.3 9 Sur 13 Sudoeste 0 -- -- 62
2018-02-14 19:00:00 14.3 8 Sudoeste 15 Sudoeste 0 -- -- 55
2018-02-14 18:00:00 16.3 5 Oeste 14 Oeste 0 -- -- 47
2018-02-14 17:00:00 15.8 6 Sudoeste 11 Sur 0 -- -- 48
2018-02-14 16:00:00 15.4 4 Sudoeste 14 Sudoeste 0 -- -- 48
2018-02-14 15:00:00 15.6 3 Este 17 Oeste 0 -- -- 48
2018-02-14 14:00:00 15.1 6 Oeste 18 Sudeste 0 -- -- 48
2018-02-14 13:00:00 13 4 Sur 14 Este 0 -- -- 56
2018-02-14 12:00:00 10.6 7 Este 15 Este 0 -- -- 66
2018-02-14 11:00:00 8.2 10 Este 15 Este 0 -- -- 72
2018-02-14 10:00:00 4.9 10 Este 15 Este 0 -- -- 81
2018-02-14 09:00:00 3.2 10 Este 15 Nordeste 0 -- -- 87
2018-02-14 08:00:00 1.9 7 Este 13 Este 0 -- -- 88
2018-02-14 07:00:00 2 8 Este 10 Este 0 -- -- 88
2018-02-14 06:00:00 2 6 Este 9 Nordeste 0 -- -- 87
2018-02-14 05:00:00 2.2 5 Nordeste 8 Este 0 -- -- 87
2018-02-14 04:00:00 3 7 Este 9 Este 0 -- -- 86
2018-02-14 03:00:00 3.7 5 Sur 6 Sur 0 -- -- 85
2018-02-14 02:00:00 4 4 Sudeste 6 Este 0 -- -- 81
2018-02-14 01:00:00 5.8 0 Calma 9 Oeste 0 -- -- 78
2018-02-14 00:00:00 7.6 8 Sudoeste 12 Sudoeste 0 -- -- 76
2018-02-13 23:00:00 7.9 8 Sudoeste 13 Sudoeste 0 -- -- 69
2018-02-13 22:00:00 8.1 8 Sudoeste 9 Sudoeste 0 -- -- 60
2018-02-13 21:00:00 9.8 2 Norte 14 Sudoeste 0 -- -- 52
2018-02-13 20:00:00 10.7 10 Sur 12 Sur 0 -- -- 45
2018-02-13 19:00:00 13.6 8 Sudoeste 23 Sudoeste 0 -- -- 37
2018-02-13 18:00:00 15.3 15 Oeste 23 Sudoeste 0 -- -- 32
2018-02-13 17:00:00 15.7 12 Oeste 23 Oeste 0 -- -- 35
2018-02-13 16:00:00 15.5 8 Sudoeste 22 Oeste 0 -- -- 35
2018-02-13 15:00:00 14.4 11 Oeste 20 Oeste 0 -- -- 38
2018-02-13 14:00:00 13.5 8 Sudoeste 18 Oeste 0 -- -- 41
2018-02-13 13:00:00 12.1 9 Oeste 19 Oeste 0 -- -- 46
2018-02-13 12:00:00 11.1 10 Oeste 15 Noroeste 0 -- -- 51
2018-02-13 11:00:00 7.9 2 Oeste 9 Nordeste 0 -- -- 61
2018-02-13 10:00:00 5.5 5 Nordeste 8 Nordeste 0 -- -- 71
2018-02-13 09:00:00 1.7 0 Calma 6 Este 0 -- -- 85
2018-02-13 08:00:00 0.8 0 Calma 6 Este 0 -- -- 84
2018-02-13 07:00:00 1.4 3 Nordeste 6 Este 0 -- -- 80
2018-02-13 06:00:00 1.8 3 Sudeste 8 Sur 0 -- -- 78
2018-02-13 05:00:00 1.8 0 Calma 8 Noroeste 0 -- -- 79
2018-02-13 04:00:00 3.1 0 Calma 4 Sur 0 -- -- 74
2018-02-13 03:00:00 3.6 0 Calma 5 Nordeste 0 -- -- 70
2018-02-13 02:00:00 4.2 3 Este 5 Sudeste 0 -- -- 66
2018-02-13 01:00:00 6.9 5 Noroeste 9 Noroeste 0 -- -- 56
2018-02-13 00:00:00 6.2 3 Norte 11 Noroeste 0 -- -- 59
2018-02-12 23:00:00 7.6 5 Noroeste 10 Noroeste 0 -- -- 52
2018-02-12 22:00:00 8.5 3 Oeste 13 Noroeste 0 -- -- 48
2018-02-12 21:00:00 9.9 8 Noroeste 14 Noroeste 0 -- -- 47
2018-02-12 20:00:00 11.4 12 Noroeste 22 Noroeste 0 -- -- 41
2018-02-12 19:00:00 14.4 14 Noroeste 27 Noroeste 0 -- -- 36
2018-02-12 18:00:00 17.4 15 Noroeste 30 Noroeste 0 -- -- 34
2018-02-12 17:00:00 18.7 18 Noroeste 30 Noroeste 0 -- -- 30
2018-02-12 16:00:00 18.7 17 Noroeste 38 Oeste 0 -- -- 32
2018-02-12 15:00:00 18.4 19 Noroeste 37 Oeste 0 -- -- 40
2018-02-12 14:00:00 16.2 18 Oeste 35 Oeste 0 -- -- 54
2018-02-12 13:00:00 15.5 24 Oeste 33 Oeste 0 -- -- 70
2018-02-12 12:00:00 13.5 19 Oeste 30 Oeste 0 -- -- 78
2018-02-12 11:00:00 12.8 16 Oeste 24 Oeste 0 -- -- 83
2018-02-12 10:00:00 11.4 9 Oeste 18 Oeste 0 -- -- 89
2018-02-12 09:00:00 10.7 11 Oeste 15 Oeste 0 -- -- 90
2018-02-12 08:00:00 9.2 3 Oeste 8 Oeste 0 -- -- 89
2018-02-12 07:00:00 9.3 4 Oeste 7 Oeste 0 -- -- 89
2018-02-12 06:00:00 8.6 4 Sur 5 Sudeste 0 -- -- 86
2018-02-12 05:00:00 8.4 0 Calma 4 Sur 0 -- -- 86
2018-02-12 04:00:00 8 0 Calma 5 Este 0 -- -- 87
2018-02-12 03:00:00 7.4 4 Este 7 Nordeste 0 -- -- 85
2018-02-12 02:00:00 8.5 6 Nordeste 8 Nordeste 0 -- -- 84
2018-02-12 01:00:00 9.5 3 Este 8 Noroeste 0 -- -- 82
2018-02-12 00:00:00 11.5 7 Sudoeste 17 Sur 0 -- -- 83
2018-02-11 23:00:00 11.8 10 Sudoeste 16 Sur 0 -- -- 80
2018-02-11 22:00:00 11.7 8 Sudoeste 12 Sudoeste 0 -- -- 75
2018-02-11 21:00:00 12.2 6 Sudoeste 15 Sudoeste 0 -- -- 70
2018-02-11 20:00:00 12.7 11 Oeste 24 Sudoeste 0 -- -- 61
2018-02-11 19:00:00 14.5 17 Sudoeste 30 Sudoeste 0 -- -- 49
2018-02-11 18:00:00 16.4 17 Sudoeste 26 Sudoeste 0 -- -- 47
2018-02-11 17:00:00 16.5 15 Sudoeste 29 Oeste 0 -- -- 45
2018-02-11 16:00:00 16.9 17 Sudoeste 28 Sudoeste 0 -- -- 44
2018-02-11 15:00:00 16.5 16 Oeste 26 Oeste 0 -- -- 44
2018-02-11 14:00:00 15.1 9 Oeste 18 Sudoeste 0 -- -- 47
2018-02-11 13:00:00 13.6 3 Sur 13 Sudeste 0 -- -- 47
2018-02-11 12:00:00 11.6 9 Sudeste 15 Este 0 -- -- 53
2018-02-11 11:00:00 9.3 10 Este 15 Este 0 -- -- 62
2018-02-11 10:00:00 6.1 8 Este 16 Este 0 -- -- 76
2018-02-11 09:00:00 2.9 6 Este 10 Este 0 -- -- 87
2018-02-11 08:00:00 1.4 4 Este 4 Nordeste 0 -- -- 84
2018-02-11 07:00:00 1.8 2 Este 8 Nordeste 0 -- -- 83
2018-02-11 06:00:00 1.9 4 Este 6 Este 0 -- -- 85
2018-02-11 05:00:00 2.2 4 Nordeste 6 Este 0 -- -- 83
2018-02-11 04:00:00 2.7 4 Este 9 Nordeste 0 -- -- 80
2018-02-11 03:00:00 3.5 8 Nordeste 10 Nordeste 0 -- -- 81
2018-02-11 02:00:00 3.6 3 Sudeste 11 Sudeste 0 -- -- 78
2018-02-11 01:00:00 4.7 0 Calma 6 Este 0 -- -- 74
2018-02-11 00:00:00 5.8 6 Sudeste 8 Sudeste 0 -- -- 69
2018-02-10 23:00:00 8.3 6 Nordeste 16 Norte 0 -- -- 60
2018-02-10 22:00:00 9 6 Norte 10 Norte 0 -- -- 60
2018-02-10 21:00:00 9.7 5 Norte 14 Nordeste 0 -- -- 59
2018-02-10 20:00:00 11.1 8 Norte 19 Norte 0 -- -- 54
2018-02-10 19:00:00 13.4 9 Norte 24 Norte 0 -- -- 48
2018-02-10 18:00:00 15.8 14 Norte 26 Norte 0 -- -- 41
2018-02-10 17:00:00 16.9 15 Norte 29 Noroeste 0 -- -- 36
2018-02-10 16:00:00 16.7 19 Noroeste 27 Noroeste 0 -- -- 35
2018-02-10 15:00:00 15.6 4 Sur 13 Sudeste 0 -- -- 48
2018-02-10 14:00:00 14.3 7 Este 16 Este 0 -- -- 52
2018-02-10 13:00:00 12.9 4 Norte 11 Este 0 -- -- 58
2018-02-10 12:00:00 11.7 4 Norte 12 Este 0 -- -- 64
2018-02-10 11:00:00 9.8 5 Este 9 Este 0 -- -- 71
2018-02-10 10:00:00 6.1 6 Sudeste 9 Sudeste 0 -- -- 85
2018-02-10 09:00:00 2.5 4 Este 6 Sudeste 0 -- -- 88
2018-02-10 08:00:00 3.1 6 Sudeste 13 Este 0 -- -- 88
2018-02-10 07:00:00 3.3 9 Este 12 Sudeste 0 -- -- 87
2018-02-10 06:00:00 3.4 8 Este 10 Este 0 -- -- 87
2018-02-10 05:00:00 4 5 Nordeste 10 Nordeste 0 -- -- 86
2018-02-10 04:00:00 3.8 3 Este 8 Nordeste 0 -- -- 84
2018-02-10 03:00:00 4.7 4 Nordeste 6 Nordeste 0 -- -- 85
2018-02-10 02:00:00 6 4 Sudeste 9 Sudeste 0 -- -- 83
2018-02-10 01:00:00 7.8 2 Sudeste 4 Sudeste 0 -- -- 76
2018-02-10 00:00:00 9.4 2 Sudoeste 6 Sudoeste 0 -- -- 78
2018-02-09 23:00:00 9.5 2 Sur 5 Sudoeste 0 -- -- 75
2018-02-09 22:00:00 9.7 2 Sudoeste 15 Sudoeste 0 -- -- 72
2018-02-09 21:00:00 9.7 9 Sudoeste 16 Sudoeste 0 -- -- 65
2018-02-09 20:00:00 9.6 10 Sudoeste 17 Sudoeste 0 -- -- 55
2018-02-09 19:00:00 10.8 8 Sudoeste 21 Oeste 0 -- -- 50
2018-02-09 18:00:00 12.5 14 Sudoeste 23 Oeste 0 -- -- 45
2018-02-09 17:00:00 13.1 12 Sudoeste 21 Oeste 0 -- -- 37
2018-02-09 16:00:00 12.9 12 Sudoeste 20 Oeste 0 -- -- 32
2018-02-09 15:00:00 12.3 10 Oeste 20 Sudoeste 0 -- -- 33
2018-02-09 14:00:00 11 8 Sudoeste 17 Sudoeste 0 -- -- 36
2018-02-09 13:00:00 9.9 4 Oeste 9 Oeste 0 -- -- 43
2018-02-09 12:00:00 8.7 3 Sudeste 11 Este 0 -- -- 46
2018-02-09 11:00:00 5.1 7 Este 13 Este 0 -- -- 60
2018-02-09 10:00:00 2.7 8 Este 12 Este 0 -- -- 69
2018-02-09 09:00:00 -0.7 8 Nordeste 12 Este 0 -- -- 81
2018-02-09 08:00:00 -1.2 3 Este 8 Norte 0 -- -- 75
2018-02-09 07:00:00 -0.5 4 Nordeste 7 Nordeste 0 -- -- 72
2018-02-09 06:00:00 -0.3 4 Nordeste 6 Nordeste 0 -- -- 71
2018-02-09 05:00:00 -0.2 4 Nordeste 6 Norte 0 -- -- 71
2018-02-09 04:00:00 -0.2 4 Nordeste 6 Nordeste 0 -- -- 72
2018-02-09 03:00:00 0.6 4 Nordeste 5 Norte 0 -- -- 68
2018-02-09 02:00:00 0.8 2 Sudeste 4 Nordeste 0 -- -- 68
2018-02-09 01:00:00 2.5 4 Este 9 Este 0 -- -- 61
2018-02-09 00:00:00 4.2 4 Nordeste 13 Nordeste 0 -- -- 53
2018-02-08 23:00:00 4 8 Este 10 Nordeste 0 -- -- 54
2018-02-08 22:00:00 5.7 5 Norte 13 Norte 0 -- -- 48
2018-02-08 21:00:00 6.6 6 Nordeste 12 Norte 0 -- -- 46
2018-02-08 20:00:00 7.8 9 Norte 16 Norte 0 -- -- 44
2018-02-08 19:00:00 10.7 12 Norte 19 Norte 0 -- -- 36
2018-02-08 18:00:00 13.7 12 Norte 19 Norte 0 -- -- 31
2018-02-08 17:00:00 14.9 8 Norte 16 Norte 0 -- -- 30
2018-02-08 16:00:00 14.5 6 Este 18 Este 0 -- -- 32
2018-02-08 15:00:00 13.6 11 Este 22 Este 0 -- -- 33
2018-02-08 14:00:00 13 12 Este 27 Este 0 -- -- 35
2018-02-08 13:00:00 11.9 14 Este 25 Nordeste 0 -- -- 36
2018-02-08 12:00:00 10.3 16 Este 26 Este 0 -- -- 40
2018-02-08 11:00:00 7.3 9 Este 14 Este 0 -- -- 52
2018-02-08 10:00:00 4.4 6 Este 12 Este 0 -- -- 61
2018-02-08 09:00:00 1.8 9 Este 14 Nordeste 0 -- -- 68
2018-02-08 08:00:00 0.9 9 Este 13 Nordeste 0 -- -- 71
2018-02-08 07:00:00 0.2 7 Este 9 Nordeste 0 -- -- 74
2018-02-08 06:00:00 1.8 8 Nordeste 11 Nordeste 0 -- -- 66
2018-02-08 05:00:00 1.9 6 Nordeste 9 Nordeste 0 -- -- 65
2018-02-08 04:00:00 2.3 6 Nordeste 10 Nordeste 0 -- -- 65
2018-02-08 03:00:00 2.3 6 Nordeste 12 Nordeste 0 -- -- 67
2018-02-08 02:00:00 2 7 Nordeste 10 Nordeste 0 -- -- 68
2018-02-08 01:00:00 1.7 5 Este 8 Este 0 -- -- 69
2018-02-08 00:00:00 2.6 5 Este 9 Norte 0 -- -- 64
2018-02-07 23:00:00 3.9 5 Nordeste 11 Este 0 -- -- 57
2018-02-07 22:00:00 5.4 9 Este 14 Este 0 -- -- 52
2018-02-07 21:00:00 5.9 8 Nordeste 16 Este 0 -- -- 55
2018-02-07 20:00:00 7.4 9 Este 15 Este 0 -- -- 52
2018-02-07 19:00:00 9.9 10 Este 26 Este 0 -- -- 44
2018-02-07 18:00:00 11.6 16 Este 29 Este 0 -- -- 39
2018-02-07 17:00:00 12.1 17 Este 30 Este 0 -- -- 37
2018-02-07 16:00:00 13 17 Este 36 Este 0 -- -- 34
2018-02-07 15:00:00 12.7 17 Este 33 Este 0 -- -- 32
2018-02-07 14:00:00 11.9 24 Este 45 Este 0 -- -- 35
2018-02-07 13:00:00 10.6 31 Este 47 Este 0 -- -- 40
2018-02-07 12:00:00 10.3 33 Este 50 Este 0 -- -- 48
2018-02-07 11:00:00 9 24 Este 36 Este 0 -- -- 57
2018-02-07 10:00:00 5.5 10 Este 17 Este 0 -- -- 71
2018-02-07 09:00:00 1.3 6 Nordeste 10 Nordeste 0 -- -- 82
2018-02-07 08:00:00 0.4 7 Nordeste 10 Este 0 -- -- 79
2018-02-07 07:00:00 0.4 5 Nordeste 10 Nordeste 0 -- -- 76
2018-02-07 06:00:00 0.7 6 Nordeste 10 Nordeste 0 -- -- 73
2018-02-07 05:00:00 1 6 Nordeste 9 Norte 0 -- -- 71
2018-02-07 04:00:00 1.1 6 Norte 11 Norte 0 -- -- 74
2018-02-07 03:00:00 1.6 5 Norte 7 Norte 0 -- -- 74
2018-02-07 02:00:00 2.7 2 Nordeste 5 Nordeste 0 -- -- 69
2018-02-07 01:00:00 3.4 4 Nordeste 6 Este 0 -- -- 68
2018-02-07 00:00:00 5.5 3 Nordeste 10 Norte 0 -- -- 57
2018-02-06 23:00:00 6.8 6 Norte 10 Este 0 -- -- 51
2018-02-06 22:00:00 8.1 6 Nordeste 15 Norte 0 -- -- 49
2018-02-06 21:00:00 9.6 9 Norte 15 Norte 0 -- -- 47
2018-02-06 20:00:00 10.4 4 Noroeste 8 Noroeste 0 -- -- 50
2018-02-06 19:00:00 11.7 0 Calma 4 Sur 0 -- -- 50
2018-02-06 18:00:00 12.2 2 Este 10 Este 0 -- -- 45
2018-02-06 17:00:00 13.1 12 Este 20 Este 0 -- -- 39
2018-02-06 16:00:00 12.7 11 Norte 19 Norte 0 -- -- 40
2018-02-06 15:00:00 12.5 4 Este 13 Sudeste 0 -- -- 44
2018-02-06 14:00:00 11.3 3 Noroeste 15 Nordeste 0 -- -- 46
2018-02-06 13:00:00 11.4 12 Nordeste 25 Este 0 -- -- 50
2018-02-06 12:00:00 10.8 17 Nordeste 30 Nordeste 0 -- -- 53
2018-02-06 11:00:00 9.1 8 Nordeste 19 Sudeste 0 -- -- 62
2018-02-06 10:00:00 6.1 6 Noroeste 10 Noroeste 0 -- -- 76
2018-02-06 09:00:00 3.1 4 Oeste 8 Noroeste 0 -- -- 81
2018-02-06 08:00:00 2.8 2 Noroeste 8 Noroeste 0 -- -- 78
2018-02-06 07:00:00 3.2 0 Calma 10 Noroeste 0 -- -- 80
2018-02-06 06:00:00 2.9 6 Noroeste 9 Noroeste 0 -- -- 87
2018-02-06 05:00:00 2.9 8 Oeste 10 Sudoeste 0 -- -- 87
2018-02-06 04:00:00 2.1 3 Noroeste 9 Oeste 0 -- -- 87
2018-02-06 03:00:00 2.7 3 Noroeste 7 Noroeste 0 -- -- 87
2018-02-06 02:00:00 3.1 3 Sur 6 Oeste 0 -- -- 88
2018-02-06 01:00:00 3.8 4 Noroeste 5 Norte 0 -- -- 86
2018-02-06 00:00:00 4.1 0 Calma 9 Norte 0 -- -- 87
2018-02-05 23:00:00 3.9 3 Sudeste 5 Nordeste 0 -- -- 86
2018-02-05 22:00:00 4.7 0 Calma 5 Sudeste 0 -- -- 82
2018-02-05 21:00:00 6 3 Sur 4 Sur 0 -- -- 79
2018-02-05 20:00:00 7.4 0 Calma 12 Este 0 -- -- 74
2018-02-05 19:00:00 9.1 5 Norte 10 Noroeste 0 -- -- 64
2018-02-05 18:00:00 10.3 8 Noroeste 17 Noroeste 0 -- -- 53
2018-02-05 17:00:00 10.5 9 Oeste 13 Oeste 0 -- -- 57
2018-02-05 16:00:00 10.6 7 Sudoeste 13 Oeste 0 -- -- 52
2018-02-05 15:00:00 9.7 8 Oeste 17 Sudoeste 0 -- -- 60
2018-02-05 14:00:00 8.9 9 Oeste 14 Sudoeste 0 -- -- 59
2018-02-05 13:00:00 7.6 3 Oeste 14 Sudoeste 0 -- -- 67
2018-02-05 12:00:00 7 8 Sudoeste 13 Sudoeste 0 -- -- 74
2018-02-05 11:00:00 6.2 2 Sudoeste 8 Sudoeste 0 -- -- 76
2018-02-05 10:00:00 4.1 3 Sudoeste 10 Oeste 0 -- -- 84
2018-02-05 09:00:00 3.2 7 Oeste 9 Sudoeste 0 -- -- 86
2018-02-05 08:00:00 3.8 3 Sudoeste 7 Sur 0 -- -- 85
2018-02-05 07:00:00 3.8 3 Sur 9 Sur 0 -- -- 85
2018-02-05 06:00:00 3.7 6 Sudoeste 9 Sudoeste 0 -- -- 84
2018-02-05 05:00:00 3.6 3 Sudoeste 8 Oeste 0 -- -- 88
2018-02-05 04:00:00 3.4 5 Oeste 8 Noroeste 0 -- -- 86
2018-02-05 03:00:00 4 4 Oeste 6 Oeste 0 -- -- 86
2018-02-05 02:00:00 3.2 3 Sudoeste 8 Oeste 0 -- -- 84
2018-02-05 01:00:00 4.3 4 Este 9 Norte 0 -- -- 80
2018-02-05 00:00:00 4.9 2 Norte 12 Norte 0 -- -- 77
2018-02-04 23:00:00 5.8 6 Norte 13 Norte 0 -- -- 73
2018-02-04 22:00:00 7.1 9 Norte 21 Noroeste 0 -- -- 69
2018-02-04 21:00:00 7.2 5 Oeste 17 Sudoeste 0 -- -- 82
2018-02-04 20:00:00 8 13 Sudoeste 18 Sudoeste 0 -- -- 78
2018-02-04 19:00:00 9 11 Sudoeste 21 Sudoeste 0 -- -- 67
2018-02-04 18:00:00 11.2 9 Oeste 21 Oeste 0 -- -- 55
2018-02-04 17:00:00 12.2 9 Oeste 17 Oeste 0 -- -- 51
2018-02-04 16:00:00 11.8 6 Oeste 13 Oeste 0 -- -- 53
2018-02-04 15:00:00 11.5 4 Norte 8 Norte 0 -- -- 54
2018-02-04 14:00:00 9.4 6 Sur 10 Sudeste 0.4 -- -- 65
2018-02-04 13:00:00 8.1 11 Noroeste 24 Noroeste 0.6 -- -- 71
2018-02-04 12:00:00 9.1 5 Oeste 8 Oeste 0 -- -- 75
2018-02-04 11:00:00 6.9 4 Este 6 Este 0 -- -- 91
2018-02-04 10:00:00 5.7 4 Sudeste 6 Sudeste 0 -- -- 90
2018-02-04 09:00:00 5.1 0 Calma 6 Norte 0 -- -- 89
2018-02-04 08:00:00 5.5 0 Calma 5 Oeste 0 -- -- 88
2018-02-04 07:00:00 6.5 0 Calma 9 Sudoeste 0 -- -- 86
2018-02-04 06:00:00 6.9 6 Sudoeste 13 Sudoeste 0 -- -- 87
2018-02-04 05:00:00 6 4 Noroeste 10 Sur 0 -- -- 86
2018-02-04 04:00:00 6.7 5 Oeste 10 Oeste 0.4 -- -- 83
2018-02-04 03:00:00 6.2 0 Calma 5 Norte 0 -- -- 77
2018-02-04 02:00:00 6.3 0 Calma 9 Sudoeste 0 -- -- 76
2018-02-04 01:00:00 6.3 5 Sudoeste 8 Sudoeste 0 -- -- 77
2018-02-04 00:00:00 5.9 0 Calma 5 Oeste 0 -- -- 76
2018-02-03 23:00:00 7.2 2 Oeste 14 Sudoeste 0 -- -- 71
2018-02-03 22:00:00 7.7 6 Sudoeste 10 Oeste 0 -- -- 65
2018-02-03 21:00:00 8.7 7 Oeste 14 Sudoeste 0 -- -- 61
2018-02-03 20:00:00 9.9 9 Sudoeste 16 Sudoeste 0 -- -- 54
2018-02-03 19:00:00 11.5 14 Sudoeste 21 Sudoeste 0 -- -- 47
2018-02-03 18:00:00 13.8 14 Sudoeste 22 Sudoeste 0 -- -- 38
2018-02-03 17:00:00 14.5 10 Sudoeste 22 Sudoeste 0 -- -- 34
2018-02-03 16:00:00 14.4 14 Oeste 23 Oeste 0 -- -- 35
2018-02-03 15:00:00 14 10 Sudoeste 21 Sudoeste 0 -- -- 34
2018-02-03 14:00:00 12.9 4 Noroeste 12 Noroeste 0 -- -- 37
2018-02-03 13:00:00 12 3 Sudeste 14 Nordeste 0 -- -- 41
2018-02-03 12:00:00 9.9 4 Este 12 Este 0 -- -- 47
2018-02-03 11:00:00 7.5 7 Este 12 Sudeste 0 -- -- 53
2018-02-03 10:00:00 4 6 Este 10 Este 0 -- -- 72
2018-02-03 09:00:00 -0.1 9 Este 11 Este 0 -- -- 83
2018-02-03 08:00:00 -0.3 6 Nordeste 8 Nordeste 0 -- -- 81
2018-02-03 07:00:00 0.5 5 Sudeste 7 Sudeste 0 -- -- 76
2018-02-03 06:00:00 1.4 3 Nordeste 8 Norte 0 -- -- 72
2018-02-03 05:00:00 2.9 6 Norte 10 Norte 0 -- -- 65
2018-02-03 04:00:00 3.1 0 Calma 12 Nordeste 0 -- -- 63
2018-02-03 03:00:00 4.4 6 Nordeste 13 Nordeste 0 -- -- 59
2018-02-03 02:00:00 4.9 8 Nordeste 15 Nordeste 0 -- -- 57
2018-02-03 01:00:00 4.9 4 Sudeste 15 Norte 0 -- -- 58
2018-02-03 00:00:00 5.4 5 Oeste 9 Oeste 0 -- -- 58
2018-02-02 23:00:00 5.8 6 Noroeste 12 Oeste 0 -- -- 57
2018-02-02 22:00:00 6.7 8 Nordeste 12 Norte 0 -- -- 53
2018-02-02 21:00:00 7.5 7 Noroeste 9 Noroeste 0 -- -- 51
2018-02-02 20:00:00 8.9 6 Noroeste 13 Norte 0 -- -- 47
2018-02-02 19:00:00 11.5 9 Norte 18 Norte 0 -- -- 38
2018-02-02 18:00:00 14.3 10 Norte 24 Norte 0 -- -- 32
2018-02-02 17:00:00 14.8 19 Noroeste 32 Noroeste 0 -- -- 30
2018-02-02 16:00:00 15.5 16 Noroeste 29 Noroeste 0 -- -- 32
2018-02-02 15:00:00 14 6 Oeste 19 Noroeste 0 -- -- 36
2018-02-02 14:00:00 12.2 9 Sudoeste 18 Este 0 -- -- 41
2018-02-02 13:00:00 11.1 8 Oeste 17 Oeste 0 -- -- 45
2018-02-02 12:00:00 10.8 9 Noroeste 18 Noroeste 0 -- -- 45
2018-02-02 11:00:00 9.1 3 Norte 10 Nordeste 0 -- -- 50
2018-02-02 10:00:00 7.7 5 Nordeste 19 Norte 0 -- -- 56
2018-02-02 09:00:00 5.6 12 Norte 29 Norte 0 -- -- 63
2018-02-02 08:00:00 5.7 15 Norte 29 Nordeste 0 -- -- 61
2018-02-02 07:00:00 6.3 11 Norte 32 Noroeste 0 -- -- 59
2018-02-02 06:00:00 6.3 17 Norte 28 Noroeste 0 -- -- 60
2018-02-02 05:00:00 6.7 15 Norte 25 Noroeste 0 -- -- 61
2018-02-02 04:00:00 7 13 Norte 26 Norte 0 -- -- 62
2018-02-02 03:00:00 6.9 3 Noroeste 10 Norte 0 -- -- 63
2018-02-02 02:00:00 7.9 4 Nordeste 23 Norte 0 -- -- 58
2018-02-02 01:00:00 9.2 16 Norte 29 Norte 0 -- -- 54
2018-02-02 00:00:00 9.6 8 Noroeste 30 Noroeste 0 -- -- 53
2018-02-01 23:00:00 9.1 9 Noroeste 27 Norte 0 -- -- 65
2018-02-01 22:00:00 10 10 Oeste 17 Noroeste 0 -- -- 68
2018-02-01 21:00:00 12.2 19 Noroeste 34 Noroeste 0 -- -- 62
2018-02-01 20:00:00 12 14 Noroeste 22 Oeste 0 -- -- 63
2018-02-01 19:00:00 13.1 10 Noroeste 34 Noroeste 0 -- -- 58
2018-02-01 18:00:00 16.4 17 Oeste 29 Oeste 0 -- -- 48
2018-02-01 17:00:00 16.6 23 Sudoeste 31 Sudoeste 0 -- -- 51
2018-02-01 16:00:00 15.8 22 Oeste 33 Oeste 0 -- -- 52
2018-02-01 15:00:00 14.8 17 Sudoeste 31 Sudoeste 0 -- -- 58
2018-02-01 14:00:00 14.4 21 Sudoeste 31 Sudoeste 0 -- -- 60
2018-02-01 13:00:00 12.9 8 Oeste 17 Sudoeste 0 -- -- 71
2018-02-01 12:00:00 11 5 Noroeste 9 Noroeste 0 -- -- 83
2018-02-01 11:00:00 9.2 3 Oeste 13 Oeste 0 -- -- 90
2018-02-01 10:00:00 6.9 0 Calma 5 Sur 0 -- -- 88
2018-02-01 09:00:00 4.6 3 Sudeste 10 Norte 0 -- -- 88
2018-02-01 08:00:00 5.6 4 Norte 10 Sur 0 -- -- 87
2018-02-01 07:00:00 5.6 5 Sur 7 Sur 0 -- -- 89
2018-02-01 06:00:00 4.9 -- -- -- -- 0 -- -- 87
2018-02-01 05:00:00 5.7 2 Norte 5 Oeste 0 -- -- 85
2018-02-01 04:00:00 6.3 4 Sudoeste 8 Sur 0 -- -- 84
2018-02-01 03:00:00 6.5 3 Este 5 Este 0 -- -- 82
2018-02-01 02:00:00 8 0 Calma 14 Oeste 0 -- -- 78
2018-02-01 01:00:00 8.1 6 Oeste 11 Oeste 0 -- -- 78
2018-02-01 00:00:00 9.3 3 Sudeste 9 Sur 0 -- -- 75
2018-01-31 23:00:00 10.2 5 Sur 10 Norte 0 -- -- 73
2018-01-31 22:00:00 11.9 4 Nordeste 9 Sudeste 0 -- -- 69
2018-01-31 21:00:00 12.7 4 Este 9 Sudeste 0 -- -- 63
2018-01-31 20:00:00 13.3 6 Este 13 Norte 0 -- -- 58
2018-01-31 19:00:00 14.4 5 Nordeste 22 Sudeste 0 -- -- 55
2018-01-31 18:00:00 16.4 15 Sudeste 21 Sudeste 0 -- -- 46
2018-01-31 17:00:00 17.5 18 Sudeste 26 Sudeste 0 -- -- 40
2018-01-31 16:00:00 17.3 19 Este 30 Sudeste 0 -- -- 41
2018-01-31 15:00:00 17.7 17 Este 31 Este 0 -- -- 41
2018-01-31 14:00:00 16.3 19 Nordeste 35 Nordeste 0 -- -- 47
2018-01-31 13:00:00 14.7 21 Este 39 Este 0 -- -- 53
2018-01-31 12:00:00 12.1 23 Este 37 Nordeste 0 -- -- 61
2018-01-31 11:00:00 9.9 15 Este 31 Este 0 -- -- 72
2018-01-31 10:00:00 10.1 24 Este 35 Este 0 -- -- 70
2018-01-31 09:00:00 9.4 15 Este 24 Este 0 -- -- 74
2018-01-31 08:00:00 9 18 Este 26 Este 0 -- -- 77
2018-01-31 07:00:00 9.6 12 Este 17 Este 0 -- -- 74
2018-01-31 06:00:00 8.4 9 Sudeste 13 Sudeste 0 -- -- 81
2018-01-31 05:00:00 8.5 4 Nordeste 14 Nordeste 0 -- -- 79
2018-01-31 04:00:00 8.8 10 Este 17 Nordeste 0 -- -- 77
2018-01-31 03:00:00 9.1 10 Este 19 Este 0 -- -- 76
2018-01-31 02:00:00 9.3 10 Nordeste 15 Nordeste 0 -- -- 75
2018-01-31 01:00:00 9 5 Nordeste 9 Nordeste 0 -- -- 76
2018-01-31 00:00:00 9.6 5 Nordeste 8 Nordeste 0 -- -- 76
2018-01-30 23:00:00 9.4 4 Nordeste 9 Nordeste 0 -- -- 76
2018-01-30 22:00:00 10.2 8 Nordeste 10 Nordeste 0 -- -- 73
2018-01-30 21:00:00 10.6 8 Este 11 Este 0 -- -- 70
2018-01-30 20:00:00 12.2 7 Este 12 Este 0 -- -- 63
2018-01-30 19:00:00 13.6 10 Este 14 Nordeste 0 -- -- 57
2018-01-30 18:00:00 15.1 9 Este 20 Este 0 -- -- 52
2018-01-30 17:00:00 16.2 14 Este 24 Este 0 -- -- 48
2018-01-30 16:00:00 16.7 16 Este 29 Este 0 -- -- 46
2018-01-30 15:00:00 16.8 22 Este 34 Este 0 -- -- 46
2018-01-30 14:00:00 17.4 24 Este 34 Este 0 -- -- 44
2018-01-30 13:00:00 15.7 21 Este 37 Este 0 -- -- 50
2018-01-30 12:00:00 13.2 22 Este 39 Este 0 -- -- 56
2018-01-30 11:00:00 13 25 Este 43 Este 0 -- -- 56
2018-01-30 10:00:00 11.8 24 Este 36 Este 0 -- -- 60
2018-01-30 09:00:00 10.4 20 Este 32 Este 0 -- -- 64
2018-01-30 08:00:00 9.3 13 Este 28 Nordeste 0 -- -- 70
2018-01-30 07:00:00 9.7 15 Este 23 Este 0 -- -- 69
2018-01-30 06:00:00 10.3 15 Este 24 Este 0 -- -- 66
2018-01-30 05:00:00 9.1 11 Este 24 Este 0 -- -- 72
2018-01-30 04:00:00 9.3 14 Este 23 Nordeste 0 -- -- 71
2018-01-30 03:00:00 9.7 10 Este 21 Nordeste 0 -- -- 69
2018-01-30 02:00:00 10.3 15 Nordeste 25 Este 0 -- -- 67
2018-01-30 01:00:00 10.6 12 Este 23 Este 0 -- -- 65
2018-01-30 00:00:00 11.6 13 Este 25 Este 0 -- -- 61
2018-01-29 23:00:00 11.2 14 Sur 24 Este 0 -- -- 64
2018-01-29 22:00:00 12.1 16 Sudeste 27 Este 0 -- -- 59
2018-01-29 21:00:00 13.2 17 Este 26 Este 0 -- -- 55
2018-01-29 20:00:00 14.1 16 Este 27 Este 0 -- -- 52
2018-01-29 19:00:00 15.6 18 Este 30 Nordeste 0 -- -- 46
2018-01-29 18:00:00 17.3 19 Este 47 Este 0 -- -- 42
2018-01-29 17:00:00 18.5 26 Este 44 Este 0 -- -- 40
2018-01-29 16:00:00 18.4 25 Este 41 Este 0 -- -- 39
2018-01-29 15:00:00 18.1 19 Este 38 Este 0 -- -- 41
2018-01-29 14:00:00 17 22 Este 48 Este 0 -- -- 43
2018-01-29 13:00:00 17.1 33 Este 51 Este 0 -- -- 42
2018-01-29 12:00:00 16.8 28 Este 47 Este 0 -- -- 45
2018-01-29 11:00:00 14.5 24 Este 39 Nordeste 0 -- -- 52
2018-01-29 10:00:00 12.4 13 Este 25 Este 0 -- -- 60
2018-01-29 09:00:00 12 18 Este 36 Este 0 -- -- 61
2018-01-29 08:00:00 12.2 24 Este 41 Este 0 -- -- 59
2018-01-29 07:00:00 11.7 24 Este 37 Este 0 -- -- 61
2018-01-29 06:00:00 10.5 14 Nordeste 22 Nordeste 0 -- -- 64
2018-01-29 05:00:00 10.5 10 Este 21 Nordeste 0 -- -- 62
2018-01-29 04:00:00 8.3 12 Nordeste 18 Nordeste 0 -- -- 68
2018-01-29 03:00:00 7.2 9 Nordeste 18 Este 0 -- -- 70
2018-01-29 02:00:00 7.1 13 Este 17 Este 0 -- -- 69
2018-01-29 01:00:00 6.9 4 Este 17 Este 0 -- -- 69
2018-01-29 00:00:00 7.2 9 Nordeste 13 Este 0 -- -- 69
2018-01-28 23:00:00 7.6 5 Este 11 Nordeste 0 -- -- 66
2018-01-28 22:00:00 7.5 6 Este 9 Nordeste 0 -- -- 70
2018-01-28 21:00:00 9.1 2 Este 12 Este 0 -- -- 68
2018-01-28 20:00:00 11 5 Este 21 Sudeste 0 -- -- 60
2018-01-28 19:00:00 12.9 17 Sudeste 44 Este 0 -- -- 53
2018-01-28 18:00:00 15 30 Este 46 Este 0 -- -- 42
2018-01-28 17:00:00 15.4 27 Este 55 Este 0 -- -- 40
2018-01-28 16:00:00 16 40 Este 64 Este 0 -- -- 40
2018-01-28 15:00:00 15.6 35 Este 54 Este 0 -- -- 44
2018-01-28 14:00:00 15 35 Este 54 Este 0 -- -- 47
2018-01-28 13:00:00 13 28 Este 44 Este 0 -- -- 58
2018-01-28 12:00:00 11.1 13 Este 22 Este 0 -- -- 62
2018-01-28 11:00:00 8.9 14 Este 24 Este 0 -- -- 61
2018-01-28 10:00:00 7.8 12 Este 18 Este 0 -- -- 64
2018-01-28 09:00:00 6 9 Sudeste 21 Nordeste 0 -- -- 67
2018-01-28 08:00:00 5.6 10 Nordeste 15 Nordeste 0 -- -- 67
2018-01-28 07:00:00 5.6 10 Nordeste 15 Nordeste 0 -- -- 68
2018-01-28 06:00:00 5.4 8 Nordeste 17 Norte 0 -- -- 70
2018-01-28 05:00:00 3.2 10 Norte 12 Norte 0 -- -- 85
2018-01-28 04:00:00 2.5 2 Nordeste 5 Este 0 -- -- 86
2018-01-28 03:00:00 2.9 4 Nordeste 7 Nordeste 0 -- -- 85
2018-01-28 02:00:00 3.2 3 Este 6 Sudeste 0 -- -- 84
2018-01-28 01:00:00 4.5 7 Sur 9 Este 0 -- -- 78
2018-01-28 00:00:00 5.2 5 Este 9 Norte 0 -- -- 75
2018-01-27 23:00:00 5.8 4 Este 8 Este 0 -- -- 73
2018-01-27 22:00:00 6.1 5 Este 9 Nordeste 0 -- -- 71
2018-01-27 21:00:00 7.5 6 Nordeste 9 Nordeste 0 -- -- 64
2018-01-27 20:00:00 9.1 6 Este 12 Nordeste 0 -- -- 58
2018-01-27 19:00:00 11.3 8 Nordeste 21 Nordeste 0 -- -- 49
2018-01-27 18:00:00 14.1 15 Nordeste 30 Norte 0 -- -- 38
2018-01-27 17:00:00 15.1 19 Nordeste 36 Nordeste 0 -- -- 34
2018-01-27 16:00:00 15.3 19 Nordeste 39 Nordeste 0 -- -- 32
2018-01-27 15:00:00 15.5 21 Nordeste 41 Este 0 -- -- 34
2018-01-27 14:00:00 15.2 21 Nordeste 41 Nordeste 0 -- -- 35
2018-01-27 13:00:00 13.3 8 Nordeste 15 Nordeste 0 -- -- 47
2018-01-27 12:00:00 11.4 10 Sudeste 13 Sudeste 0 -- -- 59
2018-01-27 11:00:00 9.9 3 Sur 9 Norte 0 -- -- 56
2018-01-27 10:00:00 7.1 5 Norte 9 Norte 0 -- -- 70
2018-01-27 09:00:00 3.6 3 Sudeste 6 Norte 0 -- -- 82
2018-01-27 08:00:00 4.6 4 Norte 7 Norte 0 -- -- 77
2018-01-27 07:00:00 4 5 Sudeste 10 Nordeste 0 -- -- 80
2018-01-27 06:00:00 5.3 5 Este 15 Norte 0 -- -- 75
2018-01-27 05:00:00 5.7 6 Norte 10 Este 0 -- -- 74
2018-01-27 04:00:00 5.7 4 Norte 10 Noroeste 0 -- -- 73
2018-01-27 03:00:00 5.5 4 Sudeste 10 Nordeste 0 -- -- 75
2018-01-27 02:00:00 6.5 0 Calma 12 Norte 0 -- -- 70
2018-01-27 01:00:00 7.1 6 Noroeste 9 Norte 0 -- -- 66
2018-01-27 00:00:00 8 5 Noroeste 10 Oeste 0 -- -- 63
2018-01-26 23:00:00 7.9 9 Oeste 11 Noroeste 0 -- -- 65
2018-01-26 22:00:00 7.9 3 Sur 11 Sudoeste 0 -- -- 70
2018-01-26 21:00:00 7.8 6 Noroeste 12 Oeste 0 -- -- 72
2018-01-26 20:00:00 8.6 3 Sur 7 Norte 0 -- -- 72
2018-01-26 19:00:00 11.2 7 Norte 25 Norte 0 -- -- 56
2018-01-26 18:00:00 14.1 14 Norte 25 Noroeste 0 -- -- 46
2018-01-26 17:00:00 14.8 15 Norte 37 Noroeste 0 -- -- 45
2018-01-26 16:00:00 14.7 18 Noroeste 36 Noroeste 0 -- -- 45
2018-01-26 15:00:00 14.4 16 Noroeste 31 Noroeste 0 -- -- 47
2018-01-26 14:00:00 14 18 Noroeste 31 Noroeste 0 -- -- 53
2018-01-26 13:00:00 11.5 13 Oeste 23 Oeste 0 -- -- 60
2018-01-26 12:00:00 9.9 7 Sudoeste 14 Sudoeste 0 -- -- 67
2018-01-26 11:00:00 8 9 Sudoeste 15 Sudoeste 0 -- -- 74
2018-01-26 10:00:00 6.7 6 Sudoeste 15 Sur 0 -- -- 83
2018-01-26 09:00:00 4.5 10 Sur 15 Sur 0 -- -- 88
2018-01-26 08:00:00 4.5 8 Sur 14 Sur 0 -- -- 86
2018-01-26 07:00:00 4.9 6 Sur 14 Sudoeste 0 -- -- 85
2018-01-26 06:00:00 5.4 5 Sur 22 Sudoeste 0 -- -- 83
2018-01-26 05:00:00 6.4 15 Sudoeste 22 Oeste 0 -- -- 80
2018-01-26 04:00:00 6.1 12 Oeste 21 Oeste 0 -- -- 83
2018-01-26 03:00:00 6.4 12 Oeste 18 Oeste 0 -- -- 83
2018-01-26 02:00:00 7 9 Sudoeste 18 Sudoeste 0 -- -- 83
2018-01-26 01:00:00 7.5 13 Sudoeste 17 Oeste 0 -- -- 85
2018-01-26 00:00:00 7.3 10 Oeste 12 Oeste 0 -- -- 92
2018-01-25 23:00:00 8 8 Noroeste 16 Oeste 0.2 -- -- 91
2018-01-25 22:00:00 9.5 14 Oeste 21 Oeste 0 -- -- 90
2018-01-25 21:00:00 10.8 13 Oeste 23 Sudoeste 0 -- -- 91
2018-01-25 20:00:00 11.4 11 Oeste 19 Sudoeste 0 -- -- 93
2018-01-25 19:00:00 11.4 11 Sudoeste 22 Sudoeste 1 -- -- 93
2018-01-25 18:00:00 11.2 13 Oeste 20 Oeste 0.2 -- -- 92
2018-01-25 17:00:00 11.2 14 Oeste 27 Oeste 0.2 -- -- 90
2018-01-25 16:00:00 12.2 21 Oeste 35 Oeste 0.2 -- -- 83
2018-01-25 15:00:00 13.1 27 Oeste 39 Oeste 0 -- -- 73
2018-01-25 14:00:00 14.7 22 Sudoeste 32 Sudoeste 0 -- -- 63
2018-01-25 13:00:00 14.1 12 Sudoeste 21 Sudoeste 0 -- -- 70
2018-01-25 12:00:00 12.1 5 Oeste 13 Oeste 0 -- -- 87
2018-01-25 11:00:00 11.4 6 Oeste 9 Oeste 0 -- -- 92
2018-01-25 10:00:00 10.2 2 Este 6 Este 0 -- -- 93
2018-01-25 09:00:00 9.3 4 Este 5 Este 0 -- -- 93
2018-01-25 08:00:00 9.3 2 Nordeste 6 Este 0 -- -- 92
2018-01-25 07:00:00 9.5 2 Sudeste 4 Sudeste 0 -- -- 93
2018-01-25 06:00:00 9 3 Sudeste 4 Sudeste 0 -- -- 92
2018-01-25 05:00:00 8.6 2 Nordeste 7 Nordeste 0 -- -- 92
2018-01-25 04:00:00 8.8 4 Nordeste 5 Nordeste 0 -- -- 91
2018-01-25 03:00:00 8.6 2 Noroeste 5 Oeste 0 -- -- 91
2018-01-25 02:00:00 9.2 3 Sudoeste 6 Sudoeste 0 -- -- 90
2018-01-25 01:00:00 9.4 2 Oeste 8 Sudoeste 0 -- -- 88
2018-01-25 00:00:00 10.7 6 Sudoeste 10 Sudoeste 0 -- -- 88
2018-01-24 23:00:00 11.1 5 Sudoeste 9 Sudoeste 0 -- -- 86
2018-01-24 22:00:00 12.1 8 Sudoeste 14 Oeste 0 -- -- 83
2018-01-24 21:00:00 13.1 9 Sudoeste 14 Sudoeste 0 -- -- 80
2018-01-24 20:00:00 14 10 Sudoeste 13 Oeste 0 -- -- 75
2018-01-24 19:00:00 15.4 7 Sudoeste 11 Oeste 0 -- -- 67
2018-01-24 18:00:00 17.6 8 Oeste 14 Oeste 0 -- -- 58
2018-01-24 17:00:00 19.7 3 Sudoeste 8 Sudoeste 0 -- -- 50
2018-01-24 16:00:00 19.4 2 Sudoeste 9 Este 0 -- -- 48
2018-01-24 15:00:00 17.9 5 Este 13 Este 0 -- -- 56
2018-01-24 14:00:00 16.4 8 Este 14 Este 0 -- -- 61
2018-01-24 13:00:00 14.7 9 Este 17 Este 0 -- -- 68
2018-01-24 12:00:00 12.4 8 Este 15 Este 0 -- -- 75
2018-01-24 11:00:00 10 10 Este 17 Este 0 -- -- 90
2018-01-24 10:00:00 7.6 6 Nordeste 10 Nordeste 0 -- -- 95
2018-01-24 09:00:00 4.7 5 Este 7 Este 0 -- -- 94
2018-01-24 08:00:00 4.9 5 Este 9 Este 0 -- -- 93
2018-01-24 07:00:00 5.4 8 Este 12 Este 0 -- -- 93
2018-01-24 06:00:00 5.7 5 Este 12 Este 0 -- -- 93
2018-01-24 05:00:00 6.2 7 Nordeste 10 Nordeste 0 -- -- 93
2018-01-24 04:00:00 6.1 7 Este 13 Este 0 -- -- 92
2018-01-24 03:00:00 6.9 9 Este 12 Nordeste 0 -- -- 92
2018-01-24 02:00:00 6.5 7 Este 8 Este 0 -- -- 91
2018-01-24 01:00:00 7.3 6 Este 7 Este 0 -- -- 90
2018-01-24 00:00:00 7.7 4 Nordeste -- -- 0 -- -- 88
2018-01-23 23:00:00 8.6 0 Calma 4 Oeste 0 -- -- 87
2018-01-23 22:00:00 9.6 0 Calma 5 Sudeste 0 -- -- 85
2018-01-23 21:00:00 10.7 2 Sur 6 Sur 0 -- -- 82
2018-01-23 20:00:00 12.7 3 Sur 5 Sudoeste 0 -- -- 77
2018-01-23 19:00:00 16 0 Calma 4 Sur 0 -- -- 66
2018-01-23 18:00:00 18.2 5 Sur 8 Sur 0 -- -- 56
2018-01-23 17:00:00 19.1 4 Sudeste 12 Sudeste 0 -- -- 50
2018-01-23 16:00:00 18.9 5 Sudeste 12 Sur 0 -- -- 53
2018-01-23 15:00:00 18.2 2 Sudeste 14 Sudeste 0 -- -- 55
2018-01-23 14:00:00 16.2 8 Este 19 Sudeste 0 -- -- 60
2018-01-23 13:00:00 15 5 Este 10 Sudeste 0 -- -- 64
2018-01-23 12:00:00 12.5 3 Sudeste 12 Este 0 -- -- 74
2018-01-23 11:00:00 9.8 9 Este 14 Nordeste 0 -- -- 88
2018-01-23 10:00:00 7.3 8 Este 12 Este 0 -- -- 94
2018-01-23 09:00:00 5.4 6 Este 12 Este 0 -- -- 93
2018-01-23 08:00:00 4.9 7 Este 10 Este 0 -- -- 93
2018-01-23 07:00:00 5.4 8 Este 9 Este 0 -- -- 92
2018-01-23 06:00:00 6.1 8 Este 11 Este 0 -- -- 92
2018-01-23 05:00:00 6.8 8 Este 13 Este 0 -- -- 92
2018-01-23 04:00:00 6.7 10 Este 14 Este 0 -- -- 92
2018-01-23 03:00:00 6.9 8 Sudeste 10 Sudeste 0 -- -- 92
2018-01-23 02:00:00 6.9 5 Sudeste 9 Sudeste 0 -- -- 91
2018-01-23 01:00:00 7.6 0 Calma 8 Este 0 -- -- 90
2018-01-23 00:00:00 8.3 8 Este 10 Este 0 -- -- 90
2018-01-22 23:00:00 9.3 5 Nordeste 8 Nordeste 0 -- -- 88
2018-01-22 22:00:00 10.1 4 Norte 8 Nordeste 0 -- -- 86
2018-01-22 21:00:00 11.4 4 Nordeste 5 Este 0 -- -- 83
2018-01-22 20:00:00 12.8 3 Sur 4 Oeste 0 -- -- 80
2018-01-22 19:00:00 16.3 4 Oeste 6 Oeste 0 -- -- 69
2018-01-22 18:00:00 19.1 3 Oeste 7 Sur 0 -- -- 59
2018-01-22 17:00:00 19.3 3 Sudoeste 8 Sudoeste 0 -- -- 57
2018-01-22 16:00:00 19 3 Sudoeste 12 Sudeste 0 -- -- 58
2018-01-22 15:00:00 17.4 5 Este 13 Sudeste 0 -- -- 65
2018-01-22 14:00:00 15.6 8 Este 14 Sudeste 0 -- -- 69
2018-01-22 13:00:00 13.8 10 Este 17 Nordeste 0 -- -- 74
2018-01-22 12:00:00 12.1 10 Este 15 Este 0 -- -- 81
2018-01-22 11:00:00 10 7 Este 13 Este 0 -- -- 93
2018-01-22 10:00:00 7.6 5 Este 10 Este 0 -- -- 94
2018-01-22 09:00:00 6.2 6 Este 17 Este 0 -- -- 94
2018-01-22 08:00:00 4.8 4 Nordeste 12 Este 0 -- -- 93
2018-01-22 07:00:00 5.6 7 Este 12 Nordeste 0 -- -- 93
2018-01-22 06:00:00 6.4 10 Nordeste 17 Este 0 -- -- 93
2018-01-22 05:00:00 6.8 8 Este 15 Este 0 -- -- 93
2018-01-22 04:00:00 6.6 11 Este 15 Este 0 -- -- 92
2018-01-22 03:00:00 6 7 Este 9 Este 0 -- -- 91
2018-01-22 02:00:00 6.8 0 Calma 5 Sudeste 0 -- -- 90
2018-01-22 01:00:00 7.2 3 Norte 7 Sudeste 0 -- -- 90
2018-01-22 00:00:00 7.6 3 Este 6 Este 0 -- -- 89